Time;durP1;ratioP1;P1;durP2;ratioP2;P2;SDS_P1;SDS_P2;PMS_P1;PMS_P2;Temp;Humidity;BMP_temperature;BMP_pressure;BME280_temperature;BME280_humidity;BME280_pressure;Samples;Min_cycle;Max_cycle;Signal;HPM_P1;HPM_P2
2023/06/03 00:01:21;;;;;;;5.67;5.07;;;;;;;;;;6347706;27;20228;-59
2023/06/03 00:04:22;;;;;;;5.20;4.57;;;;;;;;;;6322775;28;20279;-59
2023/06/03 00:07:23;;;;;;;6.57;4.60;;;;;;;;;;6351260;27;20581;-59
2023/06/03 00:10:24;;;;;;;5.33;4.77;;;;;;;;;;6328632;28;20195;-59
2023/06/03 00:13:25;;;;;;;5.70;4.93;;;;;;;;;;6337420;28;20198;-59
2023/06/03 00:16:27;;;;;;;5.47;4.40;;;;;;;;;;6336058;28;20185;-59
2023/06/03 00:19:28;;;;;;;5.37;4.87;;;;;;;;;;6336211;28;20216;-59
2023/06/03 00:22:29;;;;;;;5.43;4.93;;;;;;;;;;6325542;27;20182;-59
2023/06/03 00:25:32;;;;;;;5.90;4.63;;;;;;;;;;6341942;27;20186;-59
2023/06/03 00:28:33;;;;;;;7.43;5.13;;;;;;;;;;6344936;27;20191;-59
2023/06/03 00:31:34;;;;;;;5.37;4.87;;;;;;;;;;6320803;28;20254;-59
2023/06/03 00:34:35;;;;;;;6.87;5.07;;;;;;;;;;6327785;27;20196;-59
2023/06/03 00:37:36;;;;;;;6.40;4.57;;;;;;;;;;6325611;28;20199;-59
2023/06/03 00:40:37;;;;;;;8.03;5.40;;;;;;;;;;6350649;27;20231;-59
2023/06/03 00:43:38;;;;;;;7.03;4.70;;;;;;;;;;6313580;28;20241;-59
2023/06/03 00:46:39;;;;;;;5.80;5.20;;;;;;;;;;6330633;28;20184;-59
2023/06/03 00:49:40;;;;;;;5.53;4.80;;;;;;;;;;6336959;27;20219;-59
2023/06/03 00:52:42;;;;;;;7.13;5.20;;;;;;;;;;6327543;28;20193;-59
2023/06/03 00:55:43;;;;;;;7.10;5.13;;;;;;;;;;6327238;27;20196;-59
2023/06/03 00:58:44;;;;;;;5.87;5.33;;;;;;;;;;6339726;27;20258;-59
2023/06/03 01:01:45;;;;;;;6.93;4.90;;;;;;;;;;6329670;28;20271;-59
2023/06/03 01:04:47;;;;;;;6.40;5.67;;;;;;;;;;6323765;28;20188;-59
2023/06/03 01:07:56;;;;;;;7.27;5.50;;;;;;;;;;6340418;27;20176;-59
2023/06/03 01:11:10;;;;;;;10.90;5.37;;;;;;;;;;6346715;28;20196;-59
2023/06/03 01:14:26;;;;;;;7.60;5.60;;;17.20;75.80;;;;;;6336197;28;20188;-59
2023/06/03 01:17:35;;;;;;;6.47;5.73;;;16.90;76.20;;;;;;6342998;27;20181;-59
2023/06/03 01:20:36;;;;;;;6.60;4.93;;;16.90;76.40;;;;;;6347567;28;20303;-59
2023/06/03 01:23:42;;;;;;;5.97;5.00;;;16.80;76.60;;;;;;6310110;28;20190;-59
2023/06/03 01:26:43;;;;;;;8.97;5.17;;;16.80;76.60;;;;;;6338734;28;20185;-58
2023/06/03 01:29:45;;;;;;;8.87;5.27;;;16.80;76.60;;;;;;6309822;28;20270;-58
2023/06/03 01:32:48;;;;;;;7.80;5.87;;;16.80;76.50;;;;;;6348666;27;20186;-59
2023/06/03 01:35:51;;;;;;;7.80;6.10;;;16.80;76.80;;;;;;6328901;28;20247;-59
2023/06/03 01:38:54;;;;;;;6.97;5.23;;;16.80;76.70;;;;;;6335495;27;20200;-58
2023/06/03 01:41:55;;;;;;;6.37;5.53;;;16.80;76.70;;;;;;6310595;28;20202;-59
2023/06/03 01:44:58;;;;;;;6.77;5.90;;;;;;;;;;6301056;28;20242;-58
2023/06/03 01:47:59;;;;;;;6.73;6.00;;;;;;;;;;6338535;27;20192;-58
2023/06/03 01:51:00;;;;;;;6.83;5.40;;;;;;;;;;6314751;28;20196;-58
2023/06/03 01:54:02;;;;;;;6.27;5.57;;;;;;;;;;6314294;28;20191;-59
2023/06/03 01:57:03;;;;;;;5.83;5.27;;;;;;;;;;6321928;28;20200;-59
2023/06/03 02:00:09;;;;;;;6.13;5.53;;;;;;;;;;6320722;28;20238;-59
2023/06/03 02:03:10;;;;;;;7.97;6.03;;;;;;;;;;6338509;27;20278;-58
2023/06/03 02:06:12;;;;;;;7.43;6.57;;;;;;;;;;6332106;27;20180;-58
2023/06/03 02:09:13;;;;;;;8.13;5.43;;;;;;;;;;6330178;27;20197;-59
2023/06/03 02:12:14;;;;;;;7.43;5.83;;;;;;;;;;6318997;28;20197;-58
2023/06/03 02:15:15;;;;;;;5.87;5.27;;;;;;;;;;6338048;28;20183;-59
2023/06/03 02:18:17;;;;;;;6.80;6.20;;;;;;;;;;6332549;28;20195;-59
2023/06/03 02:21:18;;;;;;;5.83;5.33;;;;;;;;;;6328016;27;20320;-59
2023/06/03 02:24:19;;;;;;;6.13;5.53;;;;;;;;;;6328154;28;20340;-59
2023/06/03 02:27:24;;;;;;;8.03;5.23;;;;;;;;;;6319237;28;20194;-59
2023/06/03 02:30:25;;;;;;;6.43;5.73;;;;;;;;;;6338188;28;20240;-59
2023/06/03 02:33:26;;;;;;;6.07;5.47;;;;;;;;;;6347253;27;20183;-59
2023/06/03 02:36:27;;;;;;;7.83;5.70;;;;;;;;;;6325812;28;20444;-59
2023/06/03 02:39:28;;;;;;;8.50;5.80;;;;;;;;;;6326971;28;20220;-59
2023/06/03 02:42:29;;;;;;;12.40;6.30;;;;;;;;;;6314475;27;20193;-59
2023/06/03 02:45:30;;;;;;;8.50;6.23;;;;;;;;;;6323797;27;20191;-59
2023/06/03 02:48:31;;;;;;;8.43;6.37;;;;;;;;;;6340757;28;20192;-59
2023/06/03 02:51:33;;;;;;;7.50;5.90;;;;;;;;;;6326178;28;20241;-59
2023/06/03 02:54:34;;;;;;;6.27;5.20;;;;;;;;;;6337421;28;20193;-59
2023/06/03 02:57:35;;;;;;;8.67;5.67;;;;;;;;;;6314414;27;20222;-59
2023/06/03 03:00:36;;;;;;;7.03;5.60;;;;;;;;;;6326950;28;20212;-59
2023/06/03 03:03:37;;;;;;;9.13;5.90;;;;;;;;;;6324462;28;20183;-59
2023/06/03 03:06:40;;;;;;;6.97;6.27;;;;;;;;;;6325337;28;20197;-59
2023/06/03 03:09:41;;;;;;;7.97;5.83;;;;;;;;;;6342980;28;20304;-59
2023/06/03 03:12:42;;;;;;;9.03;5.90;;;;;;;;;;6312408;28;20189;-59
2023/06/03 03:15:43;;;;;;;7.17;5.50;;;;;;;;;;6338590;27;20267;-59
2023/06/03 03:18:44;;;;;;;7.50;6.27;;;;;;;;;;6334970;28;20241;-59
2023/06/03 03:21:46;;;;;;;7.93;5.80;;;;;;;;;;6343143;28;20283;-59
2023/06/03 03:24:50;;;;;;;8.67;5.53;;;;;;;;;;6331096;28;20224;-59
2023/06/03 03:27:51;;;;;;;9.33;6.27;;;;;;;;;;6328085;28;20207;-58
2023/06/03 03:30:53;;;;;;;11.70;6.17;;;;;;;;;;6317355;28;20235;-58
2023/06/03 03:33:54;;;;;;;9.67;6.50;;;;;;;;;;6339990;28;20192;-58
2023/06/03 03:36:55;;;;;;;8.53;6.37;;;;;;;;;;6319025;28;20237;-59
2023/06/03 03:39:56;;;;;;;8.13;6.10;;;;;;;;;;6319019;28;20216;-58
2023/06/03 03:42:59;;;;;;;9.63;5.90;;;;;;;;;;6325242;28;20190;-58
2023/06/03 03:46:00;;;;;;;7.00;5.87;;;;;;;;;;6330368;28;20269;-58
2023/06/03 03:49:03;;;;;;;7.80;5.63;;;;;;;;;;6320025;28;20190;-58
2023/06/03 03:52:05;;;;;;;6.73;5.47;;;;;;;;;;6336699;28;20188;-58
2023/06/03 03:55:06;;;;;;;9.47;6.03;;;;;;;;;;6338450;28;20232;-58
2023/06/03 03:58:18;;;;;;;8.27;5.87;;;;;;;;;;6324950;28;20193;-58
2023/06/03 04:01:23;;;;;;;8.83;5.63;;;;;;;;;;6337630;28;20209;-58
2023/06/03 04:04:40;;;;;;;8.57;6.60;;;;;;;;;;6338810;27;20179;-59
2023/06/03 04:07:42;;;;;;;6.40;5.80;;;;;;;;;;6340266;28;20169;-59
2023/06/03 04:10:43;;;;;;;6.00;5.27;;;;;;;;;;6326169;28;20192;-59
2023/06/03 04:13:44;;;;;;;7.27;5.33;;;;;;;;;;6321604;28;20188;-59
2023/06/03 04:16:58;;;;;;;5.97;5.20;;;;;;;;;;6328383;28;20186;-58
2023/06/03 04:20:00;;;;;;;5.40;4.43;;;;;;;;;;6329524;28;20217;-59
2023/06/03 04:23:04;;;;;;;7.20;4.90;;;;;;;;;;6336760;28;20184;-59
2023/06/03 04:26:05;;;;;;;8.30;5.43;;;;;;;;;;6349159;28;20180;-59
2023/06/03 04:29:06;;;;;;;5.97;4.60;;;;;;;;;;6322742;27;20255;-59
2023/06/03 04:32:07;;;;;;;7.07;5.70;;;;;;;;;;6323735;27;20207;-59
2023/06/03 04:35:08;;;;;;;6.60;5.03;;;;;;;;;;6328373;27;20230;-59
2023/06/03 04:38:11;;;;;;;6.73;5.97;;;;;;;;;;6319927;27;20188;-59
2023/06/03 04:41:14;;;;;;;8.60;5.43;;;;;;;;;;6340644;27;20207;-59
2023/06/03 04:44:15;;;;;;;8.20;5.33;;;;;;;;;;6340091;27;20270;-59
2023/06/03 04:47:17;;;;;;;6.73;5.00;;;;;;;;;;6330850;27;20186;-59
2023/06/03 04:50:19;;;;;;;8.53;5.47;;;;;;;;;;6332874;27;20198;-60
2023/06/03 04:53:20;;;;;;;5.17;4.37;;;;;;;;;;6330919;27;20203;-59
2023/06/03 04:56:24;;;;;;;7.07;4.73;;;;;;;;;;6349275;27;20198;-60
2023/06/03 04:59:25;;;;;;;8.70;5.57;;;;;;;;;;6340175;27;20232;-59
2023/06/03 05:02:29;;;;;;;9.73;4.77;;;;;;;;;;6339435;27;20196;-59
2023/06/03 05:05:30;;;;;;;7.97;5.33;;;;;;;;;;6330181;27;20204;-59
2023/06/03 05:08:31;;;;;;;7.93;5.20;;;;;;;;;;6339915;27;20199;-59
2023/06/03 05:11:32;;;;;;;6.73;4.57;;;;;;;;;;6328474;28;20194;-59
2023/06/03 05:14:34;;;;;;;8.90;5.00;;;;;;;;;;6327561;27;20184;-60
2023/06/03 05:17:35;;;;;;;8.00;5.60;;;;;;;;;;6329954;27;20222;-59
2023/06/03 05:20:36;;;;;;;8.73;4.83;;;;;;;;;;6328809;27;20215;-59
2023/06/03 05:23:37;;;;;;;6.07;4.83;;;;;;;;;;6322441;27;20247;-59
2023/06/03 05:26:38;;;;;;;6.30;4.53;;;;;;;;;;6362492;27;20278;-59
2023/06/03 05:29:39;;;;;;;6.00;4.77;;;;;;;;;;6339370;27;20246;-59
2023/06/03 05:32:41;;;;;;;5.67;4.60;;;;;;;;;;6352090;27;20187;-59
2023/06/03 05:35:43;;;;;;;6.93;5.10;;;;;;;;;;6357427;27;20266;-59
2023/06/03 05:38:44;;;;;;;6.50;5.40;;;;;;;;;;6343722;27;20191;-59
2023/06/03 05:41:45;;;;;;;5.73;4.97;;;;;;;;;;6330450;28;20281;-59
2023/06/03 05:44:46;;;;;;;6.37;4.43;;;;;;;;;;6353867;27;20187;-59
2023/06/03 05:47:47;;;;;;;9.40;5.13;;;;;;;;;;6323330;28;20191;-59
2023/06/03 05:50:49;;;;;;;7.80;4.57;;;;;;;;;;6331912;27;20187;-59
2023/06/03 05:53:50;;;;;;;6.60;4.90;;;;;;;;;;6361803;27;20219;-60
2023/06/03 05:56:51;;;;;;;7.63;5.23;;;;;;;;;;6336154;27;20281;-59
2023/06/03 05:59:52;;;;;;;5.57;4.40;;;;;;;;;;6353368;27;20206;-59
2023/06/03 06:02:53;;;;;;;6.83;5.10;;;;;;;;;;6333844;27;20186;-59
2023/06/03 06:05:55;;;;;;;7.33;4.77;;;;;;;;;;6342450;27;20277;-59
2023/06/03 06:08:56;;;;;;;6.57;4.53;;;;;;;;;;6338951;27;20190;-59
2023/06/03 06:11:57;;;;;;;7.63;4.80;;;;;;;;;;6336168;28;20195;-59
2023/06/03 06:14:58;;;;;;;5.50;4.97;;;;;;;;;;6330895;27;20217;-59
2023/06/03 06:18:00;;;;;;;6.93;4.87;;;;;;;;;;6338815;27;20220;-59
2023/06/03 06:21:01;;;;;;;6.03;4.37;;;;;;;;;;6335635;27;20208;-58
2023/06/03 06:24:02;;;;;;;7.90;4.57;;;;;;;;;;6335074;27;20324;-58
2023/06/03 06:27:04;;;;;;;9.13;5.13;;;;;;;;;;6361258;27;20182;-59
2023/06/03 06:30:06;;;;;;;8.40;4.33;;;;;;;;;;6346266;27;20289;-59
2023/06/03 06:33:07;;;;;;;6.00;4.40;;;;;;;;;;6325428;27;20191;-60
2023/06/03 06:36:17;;;;;;;5.90;4.50;;;;;;;;;;6344419;27;20197;-59
2023/06/03 06:39:22;;;;;;;6.00;4.50;;;;;;;;;;6337653;27;20216;-60
2023/06/03 06:42:33;;;;;;;8.70;4.97;;;;;;;;;;6345684;27;20191;-60
2023/06/03 06:45:35;;;;;;;5.27;4.70;;;;;;;;;;6352383;27;20214;-59
2023/06/03 06:48:38;;;;;;;5.67;3.77;;;;;;;;;;6352443;27;20191;-59
2023/06/03 06:51:39;;;;;;;6.60;4.30;;;;;;;;;;6337927;27;20237;-59
2023/06/03 06:54:40;;;;;;;9.27;4.83;;;;;;;;;;6327153;27;20200;-59
2023/06/03 06:57:41;;;;;;;6.07;4.80;;;;;;;;;;6331492;27;20286;-59
2023/06/03 07:00:42;;;;;;;6.60;4.13;;;;;;;;;;6336096;27;20293;-59
2023/06/03 07:03:43;;;;;;;9.13;5.67;;;;;;;;;;6336056;27;20199;-59
2023/06/03 07:06:44;;;;;;;6.43;5.47;;;;;;;;;;6322163;27;20200;-59
2023/06/03 07:09:46;;;;;;;9.63;6.53;;;;;;;;;;6327526;27;20199;-59
2023/06/03 07:12:51;;;;;;;7.47;6.00;;;;;;;;;;6323641;27;20210;-58
2023/06/03 07:15:52;;;;;;;8.37;6.13;;;;;;;;;;6347307;27;20192;-58
2023/06/03 07:18:53;;;;;;;7.43;5.87;;;;;;;;;;6327940;27;20191;-63
2023/06/03 07:21:54;;;;;;;7.57;5.77;;;;;;;;;;6341541;27;20212;-58
2023/06/03 07:24:55;;;;;;;7.97;6.13;;;;;;;;;;6330172;28;20193;-58
2023/06/03 07:27:56;;;;;;;6.53;5.60;;;;;;;;;;6352728;27;20194;-58
2023/06/03 07:30:59;;;;;;;8.43;6.50;;;;;;;;;;6343546;27;20246;-58
2023/06/03 07:34:00;;;;;;;7.83;6.40;;;;;;;;;;6328765;27;20223;-58
2023/06/03 07:37:02;;;;;;;7.50;5.87;;;;;;;;;;6354271;27;20185;-58
2023/06/03 07:40:12;;;;;;;6.80;5.23;;;;;;;;;;6360805;27;20306;-58
2023/06/03 07:43:13;;;;;;;6.40;5.70;;;;;;;;;;6354451;27;20198;-58
2023/06/03 07:46:14;;;;;;;7.53;5.63;;;;;;;;;;6335063;27;20278;-58
2023/06/03 07:49:16;;;;;;;8.50;5.40;;;;;;;;;;6336774;27;20191;-58
2023/06/03 07:52:21;;;;;;;8.73;5.87;;;;;;;;;;6336081;27;20286;-59
2023/06/03 07:55:22;;;;;;;7.73;5.10;;;;;;;;;;6346791;28;20228;-58
2023/06/03 07:58:25;;;;;;;9.67;5.10;;;;;;;;;;6359943;27;20184;-58
2023/06/03 08:01:26;;;;;;;8.40;5.40;;;;;;;;;;6346877;27;20210;-59
2023/06/03 08:04:33;;;;;;;6.90;5.17;;;;;;;;;;6329321;27;20192;-59
2023/06/03 08:07:34;;;;;;;5.97;5.37;;;;;;;;;;6364782;27;20275;-58
2023/06/03 08:10:35;;;;;;;7.60;5.37;;;;;;;;;;6326958;27;20219;-58
2023/06/03 08:13:36;;;;;;;7.70;5.13;;;;;;;;;;6335402;27;20274;-58
2023/06/03 08:16:37;;;;;;;6.10;4.97;;;;;;;;;;6341077;27;20193;-58
2023/06/03 08:19:39;;;;;;;7.27;5.03;;;;;;;;;;6325798;27;20215;-59
2023/06/03 08:22:41;;;;;;;6.83;4.67;;;;;;;;;;6345946;27;20248;-60
2023/06/03 08:25:43;;;;;;;5.63;4.30;;;;;;;;;;6353661;27;20218;-59
2023/06/03 08:28:44;;;;;;;6.10;4.67;;;;;;;;;;6322962;27;20240;-59
2023/06/03 08:31:45;;;;;;;7.07;4.90;;;;;;;;;;6331182;27;20252;-59
2023/06/03 08:34:46;;;;;;;4.77;4.07;;;;;;;;;;6339383;27;20200;-59
2023/06/03 08:37:48;;;;;;;6.73;4.53;;;;;;;;;;6342937;27;20198;-59
2023/06/03 08:40:49;;;;;;;5.70;4.37;;;;;;;;;;6340664;28;20223;-59
2023/06/03 08:43:51;;;;;;;6.60;5.13;;;;;;;;;;6341988;27;20237;-58
2023/06/03 08:47:07;;;;;;;5.70;5.03;;;;;;;;;;6331323;28;20192;-58
2023/06/03 08:50:10;;;;;;;5.53;4.57;;;;;;;;;;6350240;27;20244;-59
2023/06/03 08:53:12;;;;;;;7.60;4.40;;;;;;;;;;6350022;27;20214;-58
2023/06/03 08:56:15;;;;;;;8.13;5.03;;;;;;;;;;6357068;27;20185;-58
2023/06/03 08:59:19;;;;;;;6.27;4.27;;;;;;;;;;6351384;27;20673;-58
2023/06/03 09:02:21;;;;;;;6.33;5.00;;;;;;;;;;6340857;28;20193;-57
2023/06/03 09:05:22;;;;;;;7.03;5.23;;;;;;;;;;6338945;27;20192;-60
2023/06/03 09:08:25;;;;;;;11.07;4.70;;;;;;;;;;6340748;27;20190;-58
2023/06/03 09:11:26;;;;;;;5.07;3.97;;;;;;;;;;6334134;27;20301;-58
2023/06/03 09:14:28;;;;;;;4.83;3.90;;;;;;;;;;6353906;27;20231;-58
2023/06/03 09:17:29;;;;;;;4.30;3.50;;;;;;;;;;6326753;27;20187;-58
2023/06/03 09:20:30;;;;;;;5.30;4.27;;;;;;;;;;6346005;27;20218;-59
2023/06/03 09:23:32;;;;;;;4.43;3.60;;;;;;;;;;6349064;27;20186;-61
2023/06/03 09:26:33;;;;;;;4.57;3.73;;;;;;;;;;6337692;27;20191;-60
2023/06/03 09:29:34;;;;;;;4.87;3.77;;;;;;;;;;6340164;27;20250;-60
2023/06/03 09:32:36;;;;;;;4.93;3.40;;;;;;;;;;6327300;27;20183;-60
2023/06/03 09:35:37;;;;;;;3.97;3.30;;;;;;;;;;6345685;27;20243;-58
2023/06/03 09:38:55;;;;;;;5.90;3.93;;;;;;;;;;6323007;27;20192;-58
2023/06/03 09:41:56;;;;;;;4.30;3.80;;;;;;;;;;6347794;27;20204;-59
2023/06/03 09:44:57;;;;;;;4.50;3.67;;;;;;;;;;6331041;27;20188;-58
2023/06/03 09:47:59;;;;;;;5.07;4.10;;;;;;;;;;6328764;27;20184;-58
2023/06/03 09:51:00;;;;;;;5.63;3.93;;;;;;;;;;6334886;27;20224;-58
2023/06/03 09:54:15;;;;;;;5.30;4.30;;;;;;;;;;6337396;27;20183;-57
2023/06/03 09:57:16;;;;;;;5.33;4.23;;;;;;;;;;6351063;27;20188;-58
2023/06/03 10:00:17;;;;;;;4.67;4.00;;;;;;;;;;6361506;27;20213;-58
2023/06/03 10:03:23;;;;;;;3.53;3.23;;;;;;;;;;6328118;27;20194;-58
2023/06/03 10:06:24;;;;;;;3.97;3.57;;;;;;;;;;6355813;27;20205;-58
2023/06/03 10:09:25;;;;;;;5.83;3.97;;;;;;;;;;6352990;27;20277;-58
2023/06/03 10:12:30;;;;;;;5.73;3.40;;;;;;;;;;6339997;27;20183;-59
2023/06/03 10:15:38;;;;;;;4.97;3.83;;;;;;;;;;6341181;27;20207;-59
2023/06/03 10:18:40;;;;;;;8.50;4.27;;;;;;;;;;6335462;27;20180;-59
2023/06/03 10:21:43;;;;;;;5.10;3.70;;;;;;;;;;6348009;27;20213;-58
2023/06/03 10:24:47;;;;;;;4.57;4.10;;;;;;;;;;6350186;27;20203;-59
2023/06/03 10:27:49;;;;;;;6.00;3.43;;;;;;;;;;6350560;27;20188;-59
2023/06/03 10:30:51;;;;;;;5.20;3.97;;;;;;;;;;6332816;27;20234;-59
2023/06/03 10:33:52;;;;;;;4.67;3.67;;;;;;;;;;6353148;27;20219;-58
2023/06/03 10:36:58;;;;;;;4.20;3.80;;;;;;;;;;6328758;27;20258;-58
2023/06/03 10:40:00;;;;;;;4.70;3.43;;;;;;;;;;6349142;27;20215;-58
2023/06/03 10:43:02;;;;;;;6.37;3.50;;;;;;;;;;6327442;27;20205;-58
2023/06/03 10:46:03;;;;;;;4.47;3.30;;;;;;;;;;6332417;27;20328;-58
2023/06/03 10:49:07;;;;;;;5.60;3.33;;;;;;;;;;6344955;27;20219;-59
2023/06/03 10:52:20;;;;;;;5.13;4.10;;;;;;;;;;6349807;27;20217;-59
2023/06/03 10:55:30;;;;;;;5.27;3.23;;;;;;;;;;6352893;27;20191;-60
2023/06/03 10:58:31;;;;;;;5.73;3.70;;;;;;;;;;6353074;27;20263;-61
2023/06/03 11:01:51;;;;;;;4.93;3.93;;;;;;;;;;6346647;28;20271;-61
2023/06/03 11:05:12;;;;;;;4.13;3.60;;;;;;;;;;6334789;27;20207;-62
2023/06/03 11:08:13;;;;;;;5.17;3.63;;;;;;;;;;6338939;28;20192;-62
2023/06/03 11:11:34;;;;;;;6.30;4.47;;;;;;;;;;6327529;27;20202;-62
2023/06/03 11:14:40;;;;;;;5.53;4.57;;;;;;;;;;6355642;27;20199;-62
2023/06/03 11:17:43;;;;;;;5.00;3.47;;;;;;;;;;6334620;27;20191;-64
2023/06/03 11:20:44;;;;;;;4.97;4.13;;;;;;;;;;6314991;28;20222;-63
2023/06/03 11:23:46;;;;;;;5.57;4.13;;;;;;;;;;6333452;27;20195;-63
2023/06/03 11:26:48;;;;;;;4.77;4.27;;;;;;;;;;6326063;28;20192;-63
2023/06/03 11:29:49;;;;;;;6.07;4.00;;;;;;;;;;6322896;28;20242;-63
2023/06/03 11:33:09;;;;;;;5.47;4.30;;;;;;;;;;6341222;27;20198;-63
2023/06/03 11:36:29;;;;;;;5.47;3.83;;;;;;;;;;6335246;28;20206;-63
2023/06/03 11:39:50;;;;;;;5.33;4.77;;;;;;;;;;6349469;28;20195;-64
2023/06/03 11:42:51;;;;;;;5.40;4.87;;;;;;;;;;6337445;28;20188;-63
2023/06/03 11:45:52;;;;;;;5.53;4.00;;;;;;;;;;6355900;27;20189;-63
2023/06/03 11:48:53;;;;;;;4.67;4.27;;;;;;;;;;6324887;28;20202;-64
2023/06/03 11:51:58;;;;;;;4.50;4.10;;;;;;;;;;6351934;27;20268;-64
2023/06/03 11:55:00;;;;;;;4.10;3.70;;;;;;;;;;6346661;27;20187;-64
2023/06/03 11:58:08;;;;;;;4.37;3.93;;;;;;;;;;6325679;28;20197;-60
2023/06/03 12:01:11;;;;;;;8.40;4.20;;;;;;;;;;6348429;28;20234;-61
2023/06/03 12:04:12;;;;;;;5.30;4.03;;;;;;;;;;6352647;28;20203;-59
2023/06/03 12:07:15;;;;;;;5.33;4.37;;;;;;;;;;6331973;28;20219;-60
2023/06/03 12:10:16;;;;;;;4.80;3.77;;;;;;;;;;6360797;27;20191;-60
2023/06/03 12:13:17;;;;;;;4.73;3.90;;;;;;;;;;6336118;27;20184;-59
2023/06/03 12:16:31;;;;;;;7.87;4.23;;;;;;;;;;6315924;28;20196;-60
2023/06/03 12:19:32;;;;;;;4.77;3.57;;;;;;;;;;6339502;27;20188;-61
2023/06/03 12:22:33;;;;;;;4.33;3.53;;;;;;;;;;6333518;27;20195;-60
2023/06/03 12:25:34;;;;;;;4.20;3.80;;;;;;;;;;6338489;28;20196;-60
2023/06/03 12:28:35;;;;;;;6.13;4.50;;;;;;;;;;6352045;27;20265;-60
2023/06/03 12:31:36;;;;;;;5.40;3.97;;;;;;;;;;6336175;27;20243;-60
2023/06/03 12:34:37;;;;;;;5.03;3.90;;;;;;;;;;6330601;27;20281;-59
2023/06/03 12:37:39;;;;;;;5.33;3.47;;;;;;;;;;6329588;27;20263;-60
2023/06/03 12:40:40;;;;;;;7.10;3.80;;;;;;;;;;6342349;27;20215;-61
2023/06/03 12:43:41;;;;;;;7.53;4.10;;;;;;;;;;6329790;27;20198;-59
2023/06/03 12:46:44;;;;;;;5.50;4.43;;;26.00;40.10;;;;;;6328330;28;20196;-59
2023/06/03 12:50:02;;;;;;;4.70;3.83;;;26.00;39.90;;;;;;6302382;28;20192;-60
2023/06/03 12:53:18;;;;;;;5.60;3.87;;;25.80;40.40;;;;;;6344035;27;20196;-61
2023/06/03 12:56:19;;;;;;;5.33;3.80;;;;;;;;;;6337975;27;20214;-60
2023/06/03 12:59:20;;;;;;;5.47;4.50;;;;;;;;;;6332549;27;20191;-60
2023/06/03 13:02:21;;;;;;;4.33;3.93;;;;;;;;;;6328413;27;20266;-58
2023/06/03 13:05:23;;;;;;;6.83;4.37;;;;;;;;;;6358489;27;20187;-58
2023/06/03 13:08:23;;;;;;;4.17;3.77;;;27.40;39.50;;;;;;6339175;27;20255;-58
2023/06/03 13:11:25;;;;;;;6.03;4.30;;;;;;;;;;6310691;27;20187;-58
2023/06/03 13:14:26;;;;;;;5.83;4.93;;;;;;;;;;6323973;27;20195;-58
2023/06/03 13:17:27;;;;;;;7.03;4.47;;;;;;;;;;6337767;28;20191;-58
2023/06/03 13:20:30;;;;;;;5.57;4.73;;;;;;;;;;6374994;27;20198;-58
2023/06/03 13:23:31;;;;;;;5.70;4.40;;;;;;;;;;6358946;27;20213;-58
2023/06/03 13:26:32;;;;;;;5.27;4.30;;;;;;;;;;6340393;27;20268;-58
2023/06/03 13:29:33;;;;;;;8.20;4.60;;;25.60;43.00;;;;;;6331154;27;20242;-58
2023/06/03 13:32:35;;;;;;;6.20;4.30;;;;;;;;;;6323888;27;20187;-59
2023/06/03 13:35:35;;;;;;;6.30;4.43;;;27.10;38.00;;;;;;6320415;27;20274;-58
2023/06/03 13:38:36;;;;;;;4.50;4.10;;;27.90;35.90;;;;;;6311864;27;20194;-59
2023/06/03 13:41:37;;;;;;;4.27;3.97;;;28.90;37.20;;;;;;6321800;27;20245;-59
2023/06/03 13:44:38;;;;;;;6.13;4.37;;;29.20;35.70;;;;;;6308541;27;20212;-59
2023/06/03 13:47:39;;;;;;;5.20;4.20;;;29.40;34.90;;;;;;6328706;27;20214;-58
2023/06/03 13:50:40;;;;;;;6.17;4.23;;;;;;;;;;6333562;27;20202;-58
2023/06/03 13:53:40;;;;;;;4.60;4.20;;;28.90;34.50;;;;;;6335359;27;20404;-57
2023/06/03 13:56:42;;;;;;;5.60;4.10;;;28.00;35.70;;;;;;6325886;27;20203;-58
2023/06/03 13:59:43;;;;;;;4.57;3.93;;;;;;;;;;6315891;28;20215;-58
2023/06/03 14:02:44;;;;;;;5.33;4.60;;;;;;;;;;6344959;27;20183;-58
2023/06/03 14:05:46;;;;;;;5.47;4.37;;;28.30;36.80;;;;;;6323141;27;20202;-58
2023/06/03 14:08:48;;;;;;;5.73;4.27;;;;;;;;;;6315271;27;20196;-58
2023/06/03 14:11:50;;;;;;;4.07;3.53;;;;;;;;;;6346957;27;20396;-59
2023/06/03 14:14:50;;;;;;;4.10;3.70;;;28.30;36.40;;;;;;6326724;27;20286;-57
2023/06/03 14:17:51;;;;;;;4.17;3.77;;;27.40;38.60;;;;;;6338764;27;20194;-57
2023/06/03 14:20:52;;;;;;;5.13;4.47;;;27.50;39.00;;;;;;6309687;27;20218;-57
2023/06/03 14:23:53;;;;;;;6.13;5.13;;;;;;;;;;6321280;27;20199;-57
2023/06/03 14:26:54;;;;;;;4.97;4.47;;;;;;;;;;6329613;27;20286;-57
2023/06/03 14:29:55;;;;;;;5.37;4.87;;;;;;;;;;6329680;28;20269;-58
2023/06/03 14:32:56;;;;;;;6.33;4.33;;;;;;;;;;6332196;27;20191;-57
2023/06/03 14:35:57;;;;;;;6.07;4.73;;;26.90;40.10;;;;;;6329219;27;20187;-58
2023/06/03 14:38:58;;;;;;;6.30;4.27;;;26.70;38.90;;;;;;6322306;27;20199;-57
2023/06/03 14:41:59;;;;;;;6.40;4.87;;;26.50;39.50;;;;;;6321487;27;20261;-57
2023/06/03 14:44:59;;;;;;;5.73;4.80;;;26.30;39.60;;;;;;6326396;27;20182;-57
2023/06/03 14:48:01;;;;;;;4.47;4.07;;;26.00;38.70;;;;;;6309741;27;20206;-57
2023/06/03 14:51:02;;;;;;;5.03;4.23;;;25.70;39.10;;;;;;6313424;27;20201;-58
2023/06/03 14:54:02;;;;;;;5.00;4.47;;;25.60;40.30;;;;;;6314711;27;20184;-58
2023/06/03 14:57:03;;;;;;;5.70;4.83;;;25.00;42.40;;;;;;6335958;27;20321;-58
2023/06/03 15:00:05;;;;;;;5.53;4.50;;;25.00;39.80;;;;;;6340751;27;20209;-58
2023/06/03 15:03:05;;;;;;;6.50;4.13;;;25.00;39.80;;;;;;6304820;28;20184;-58
2023/06/03 15:06:07;;;;;;;7.00;4.87;;;24.80;41.50;;;;;;6351544;27;20215;-58
2023/06/03 15:09:07;;;;;;;4.90;4.27;;;24.90;39.60;;;;;;6315716;27;20200;-57
2023/06/03 15:12:09;;;;;;;5.77;4.97;;;24.70;40.10;;;;;;6328906;27;20187;-57
2023/06/03 15:15:10;;;;;;;5.73;4.10;;;24.60;42.30;;;;;;6313132;27;20193;-58
2023/06/03 15:18:11;;;;;;;8.67;5.03;;;24.60;40.00;;;;;;6326100;27;20179;-58
2023/06/03 15:21:12;;;;;;;6.33;4.77;;;24.60;38.70;;;;;;6308808;27;20243;-57
2023/06/03 15:24:12;;;;;;;6.90;4.67;;;24.40;39.00;;;;;;6328967;28;20190;-58
2023/06/03 15:27:14;;;;;;;5.77;4.73;;;24.20;41.20;;;;;;6332043;28;20215;-58
2023/06/03 15:30:15;;;;;;;5.60;4.40;;;24.20;43.90;;;;;;6301338;27;20327;-57
2023/06/03 15:33:16;;;;;;;7.83;4.90;;;24.20;41.70;;;;;;6328136;28;20188;-58
2023/06/03 15:36:18;;;;;;;7.30;4.37;;;24.00;41.70;;;;;;6326830;28;20196;-59
2023/06/03 15:39:18;;;;;;;7.00;4.73;;;24.00;39.40;;;;;;6326680;28;20211;-58
2023/06/03 15:42:19;;;;;;;4.83;4.30;;;23.70;38.90;;;;;;6302839;28;20211;-57
2023/06/03 15:45:20;;;;;;;5.33;4.43;;;23.60;40.00;;;;;;6336142;27;20190;-59
2023/06/03 15:48:20;;;;;;;5.37;4.83;;;23.60;41.90;;;;;;6314250;28;20183;-58
2023/06/03 15:51:21;;;;;;;4.87;4.00;;;23.50;42.20;;;;;;6326755;28;20194;-58
2023/06/03 15:54:22;;;;;;;5.93;4.90;;;23.50;43.00;;;;;;6313395;27;20207;-58
2023/06/03 15:57:23;;;;;;;5.13;4.23;;;23.40;41.70;;;;;;6341463;27;20194;-58
2023/06/03 16:00:23;;;;;;;5.93;4.80;;;23.40;42.00;;;;;;6313479;27;20252;-58
2023/06/03 16:03:24;;;;;;;5.27;4.70;;;23.20;41.90;;;;;;6342842;27;20194;-58
2023/06/03 16:06:25;;;;;;;5.83;5.20;;;23.10;43.00;;;;;;6311366;27;20219;-59
2023/06/03 16:09:25;;;;;;;6.33;5.20;;;23.10;42.70;;;;;;6318952;27;20186;-58
2023/06/03 16:12:26;;;;;;;5.80;4.93;;;22.90;41.80;;;;;;6302485;27;20198;-58
2023/06/03 16:15:27;;;;;;;7.10;5.03;;;22.90;44.10;;;;;;6321127;28;20191;-58
2023/06/03 16:18:28;;;;;;;5.60;5.07;;;22.90;44.30;;;;;;6312884;27;20196;-58
2023/06/03 16:21:29;;;;;;;5.73;4.40;;;22.80;43.80;;;;;;6314561;27;20214;-58
2023/06/03 16:24:29;;;;;;;5.67;4.90;;;22.80;44.30;;;;;;6322371;27;20318;-58
2023/06/03 16:27:30;;;;;;;6.60;5.13;;;22.80;45.40;;;;;;6332513;27;20191;-59
2023/06/03 16:30:31;;;;;;;6.33;4.73;;;22.70;43.30;;;;;;6312201;28;20239;-59
2023/06/03 16:33:31;;;;;;;5.67;5.00;;;22.60;44.40;;;;;;6313548;28;20291;-59
2023/06/03 16:36:32;;;;;;;6.33;5.70;;;22.60;43.00;;;;;;6324936;28;20192;-58
2023/06/03 16:39:33;;;;;;;6.33;4.50;;;22.40;43.70;;;;;;6313220;27;20194;-59
2023/06/03 16:42:33;;;;;;;8.13;5.33;;;22.20;43.90;;;;;;6319503;28;20215;-58
2023/06/03 16:45:34;;;;;;;8.17;4.37;;;22.20;46.70;;;;;;6308354;28;20188;-58
2023/06/03 16:48:35;;;;;;;6.07;4.97;;;22.10;45.00;;;;;;6312247;27;20184;-58
2023/06/03 16:51:36;;;;;;;6.67;4.63;;;22.10;44.50;;;;;;6324625;28;20187;-58
2023/06/03 16:54:37;;;;;;;6.10;3.93;;;22.00;44.90;;;;;;6326951;28;20193;-58
2023/06/03 16:57:37;;;;;;;6.03;4.83;;;21.90;47.00;;;;;;6307041;28;20200;-57
2023/06/03 17:00:38;;;;;;;5.57;4.57;;;21.90;45.50;;;;;;6314795;28;20214;-58
2023/06/03 17:03:42;;;;;;;5.80;4.57;;;21.80;45.40;;;;;;6315162;28;20193;-58
2023/06/03 17:06:43;;;;;;;10.00;4.70;;;21.70;45.50;;;;;;6333849;28;20211;-58
2023/06/03 17:09:43;;;;;;;5.53;4.33;;;21.50;45.80;;;;;;6309007;28;20198;-59
2023/06/03 17:12:44;;;;;;;8.87;5.63;;;21.50;45.20;;;;;;6329231;27;20197;-58
2023/06/03 17:15:45;;;;;;;8.07;4.67;;;;;;;;;;6308678;27;20199;-58
2023/06/03 17:18:46;;;;;;;7.70;5.53;;;;;;;;;;6331906;27;20198;-58
2023/06/03 17:21:47;;;;;;;6.17;5.57;;;;;;;;;;6315537;28;20205;-59
2023/06/03 17:24:48;;;;;;;5.90;5.10;;;;;;;;;;6313838;28;20202;-59
2023/06/03 17:27:49;;;;;;;8.43;4.90;;;;;;;;;;6321062;28;20229;-58
2023/06/03 17:30:50;;;;;;;7.00;5.07;;;;;;;;;;6322183;28;20249;-58
2023/06/03 17:33:52;;;;;;;5.10;4.60;;;;;;;;;;6316189;27;20203;-58
2023/06/03 17:36:52;;;;;;;7.07;4.97;;;21.30;46.10;;;;;;6340988;28;20222;-58